Time;durP1;ratioP1;P1;durP2;ratioP2;P2;SDS_P1;SDS_P2;PMS_P1;PMS_P2;Temp;Humidity;BMP_temperature;BMP_pressure;BME280_temperature;BME280_humidity;BME280_pressure;Samples;Min_cycle;Max_cycle;Signal;HPM_P1;HPM_P2
2023/06/01 00:02:09;;;;;;;;;;;;;;;23.04;43.94;102402.56;5047361;28;19916;-71
2023/06/01 00:04:40;;;;;;;;;;;;;;;23.03;43.88;102399.00;5035559;28;19917;-71
2023/06/01 00:07:06;;;;;;;;;;;;;;;23.02;43.94;102397.28;5051477;28;19924;-72
2023/06/01 00:09:31;;;;;;;;;;;;;;;23.03;44.12;102398.16;5037803;28;20302;-72
2023/06/01 00:11:56;;;;;;;;;;;;;;;23.02;43.94;102402.69;5056012;28;19917;-71
2023/06/01 00:14:21;;;;;;;;;;;;;;;23.02;43.91;102404.56;5049877;28;19921;-71
2023/06/01 00:16:47;;;;;;;;;;;;;;;23.01;43.77;102401.00;5051020;28;19932;-71
2023/06/01 00:19:12;;;;;;;;;;;;;;;23.01;44.07;102397.44;5030021;28;19913;-71
2023/06/01 00:21:37;;;;;;;;;;;;;;;22.99;43.93;102392.19;5050226;28;19936;-71
2023/06/01 00:24:02;;;;;;;;;;;;;;;22.99;43.94;102394.06;5050349;28;20370;-71
2023/06/01 00:26:29;;;;;;;;;;;;;;;22.97;44.07;102383.34;5037444;28;19996;-71
2023/06/01 00:28:55;;;;;;;;;;;;;;;22.97;43.84;102394.19;5048037;28;19921;-71
2023/06/01 00:31:20;;;;;;;;;;;;;;;22.97;44.00;102382.50;5040236;28;19924;-71
2023/06/01 00:33:45;;;;;;;;;;;;;;;22.95;43.80;102388.09;5035829;28;19920;-71
2023/06/01 00:36:10;;;;;;;;;;;;;;;22.95;43.98;102390.81;5034543;28;19913;-71
2023/06/01 00:38:35;;;;;;;;;;;;;;;22.94;43.85;102386.41;5036170;28;19912;-70
2023/06/01 00:41:00;;;;;;;;;;;;;;;22.93;43.83;102390.94;5047713;28;19917;-70
2023/06/01 00:43:26;;;;;;;;;;;;;;;22.93;43.58;102388.25;5054565;28;19917;-70
2023/06/01 00:45:51;;;;;;;;;;;;;;;22.92;43.73;102381.13;5031623;28;19917;-71
2023/06/01 00:48:16;;;;;;;;;;;;;;;22.92;43.87;102385.69;5045342;28;19912;-71
2023/06/01 00:50:42;;;;;;;;;;;;;;;22.91;43.68;102386.72;5037451;28;19917;-71
2023/06/01 00:53:08;;;;;;;;;;;;;;;22.89;43.97;102397.66;5040201;28;19913;-70
2023/06/01 00:55:33;;;;;;;;;;;;;;;22.89;43.91;102394.97;5034803;28;20518;-71
2023/06/01 00:57:58;;;;;;;;;;;;;;;22.88;43.79;102395.97;5055573;28;19987;-70
2023/06/01 01:00:24;;;;;;;;;;;;;;;22.88;43.92;102395.97;5048255;28;19971;-70
2023/06/01 01:02:51;;;;;;;;;;;;;;;22.87;43.63;102401.56;5049310;28;20007;-71
2023/06/01 01:05:17;;;;;;;;;;;;;;;22.87;43.78;102401.56;5041345;28;20374;-71
2023/06/01 01:07:47;;;;;;;;;;;;;;;22.86;43.82;102411.56;5039078;28;19913;-71
2023/06/01 01:10:18;;;;;;;;;;;;;;;22.85;43.91;102412.59;5054494;28;19917;-71
2023/06/01 01:12:45;;;;;;;;;;;;;;;22.85;43.65;102403.56;5056352;28;20466;-71
2023/06/01 01:15:17;;;;;;;;;;;;;;;22.84;43.64;102405.44;5047255;28;19963;-71
2023/06/01 01:17:44;;;;;;;;;;;;;;;22.84;43.88;102401.88;5035115;28;19927;-71
2023/06/01 01:20:11;;;;;;;;;;;;;;;22.83;43.68;102398.31;5036336;28;19936;-71
2023/06/01 01:22:56;;;;;;;;;;;;;;;22.83;43.76;102400.19;5052386;28;19913;-71
2023/06/01 01:25:21;;;;;;;;;;;;;;;22.81;43.62;102403.06;5053376;28;20357;-70
2023/06/01 01:27:58;;;;;;;;;;;;;;;22.82;43.71;102406.63;5047289;28;19913;-71
2023/06/01 01:30:24;;;;;;;;;;;;;;;22.80;43.51;102393.19;5040639;28;19921;-70
2023/06/01 01:32:50;;;;;;;;;;;;;;;22.80;43.80;102400.50;5060848;28;19913;-71
2023/06/01 01:35:15;;;;;;;;;;;;;;;22.79;43.55;102404.22;5051847;28;19917;-71
2023/06/01 01:37:53;;;;;;;;;;;;;;;22.78;43.61;102400.66;5054541;28;20349;-71
2023/06/01 01:40:18;;;;;;;;;;;;;;;22.77;43.86;102407.09;5052288;28;19917;-71
2023/06/01 01:42:44;;;;;;;;;;;;;;;22.77;43.69;102408.94;5048261;28;20461;-71
2023/06/01 01:45:09;;;;;;;;;;;;;;;22.78;43.76;102413.38;5052048;28;19923;-71
2023/06/01 01:47:35;;;;;;;;;;;;;;;22.76;43.76;102410.81;5035621;28;19924;-71
2023/06/01 01:50:03;;;;;;;;;;;;;;;22.77;43.68;102403.50;5023796;28;19941;-72
2023/06/01 01:52:32;;;;;;;;;;;;;;;22.75;43.77;102403.69;5046927;28;19924;-71
2023/06/01 01:54:57;;;;;;;;;;;;;;;22.74;43.43;102399.28;5055757;28;19920;-71
2023/06/01 01:57:22;;;;;;;;;;;;;;;22.75;43.69;102400.13;5033178;28;19913;-71
2023/06/01 01:59:48;;;;;;;;;;;;;;;22.74;43.60;102404.69;5043523;28;19913;-71
2023/06/01 02:02:13;;;;;;;;;;;;;;;22.72;43.58;102393.16;5052976;28;19967;-71
2023/06/01 02:04:42;;;;;;;;;;;;;;;22.73;43.46;102391.31;5047952;28;19932;-71
2023/06/01 02:07:07;;;;;;;;;;;;;;;22.70;43.65;102385.19;5038608;28;19913;-71
2023/06/01 02:09:32;;;;;;;;;;;;;;;22.71;43.80;102391.44;5051803;28;19955;-72
2023/06/01 02:11:58;;;;;;;;;;;;;;;22.70;43.70;102393.31;5052429;28;19975;-72
2023/06/01 02:14:23;;;;;;;;;;;;;;;22.69;43.68;102390.78;5052023;28;19963;-71
2023/06/01 02:16:48;;;;;;;;;;;;;;;22.69;43.43;102393.47;5050529;28;19921;-71
2023/06/01 02:19:15;;;;;;;;;;;;;;;22.68;43.48;102383.63;5051190;28;19936;-72
2023/06/01 02:21:40;;;;;;;;;;;;;;;22.67;43.69;102380.06;5038083;28;20658;-71
2023/06/01 02:24:07;;;;;;;;;;;;;;;22.66;43.55;102375.66;5050151;28;19977;-71
2023/06/01 02:26:32;;;;;;;;;;;;;;;22.66;43.56;102378.38;5041467;28;19917;-71
2023/06/01 02:28:57;;;;;;;;;;;;;;;22.66;43.66;102378.38;5054584;28;19928;-72
2023/06/01 02:31:22;;;;;;;;;;;;;;;22.66;43.61;102372.09;5050985;28;19924;-71
2023/06/01 02:33:48;;;;;;;;;;;;;;;22.64;43.19;102377.69;5057125;28;19945;-71
2023/06/01 02:36:16;;;;;;;;;;;;;;;22.64;43.47;102371.38;5051371;28;19935;-71
2023/06/01 02:38:41;;;;;;;;;;;;;;;22.64;43.27;102379.53;5054306;28;19955;-71
2023/06/01 02:41:06;;;;;;;;;;;;;;;22.63;43.41;102380.53;5050145;28;19913;-71
2023/06/01 02:43:33;;;;;;;;;;;;;;;22.61;43.48;102383.41;5034662;28;19913;-71
2023/06/01 02:45:58;;;;;;;;;;;;;;;22.62;43.49;102384.25;5039790;28;19912;-70
2023/06/01 02:48:24;;;;;;;;;;;;;;;22.61;43.34;102382.56;5039808;28;20008;-70
2023/06/01 02:50:49;;;;;;;;;;;;;;;22.60;43.33;102384.44;5034685;28;19921;-71
2023/06/01 02:53:14;;;;;;;;;;;;;;;22.59;43.16;102379.16;5041734;28;19948;-70
2023/06/01 02:55:39;;;;;;;;;;;;;;;22.58;43.34;102385.59;5044779;28;19913;-71
2023/06/01 02:58:08;;;;;;;;;;;;;;;22.57;43.47;102383.91;5052433;28;19960;-71
2023/06/01 03:00:33;;;;;;;;;;;;;;;22.56;43.15;102390.34;5056731;28;19916;-70
2023/06/01 03:02:58;;;;;;;;;;;;;;;22.56;43.16;102387.63;5050393;28;19948;-72
2023/06/01 03:05:23;;;;;;;;;;;;;;;22.55;43.19;102385.91;5029797;28;19912;-70
2023/06/01 03:07:49;;;;;;;;;;;;;;;22.55;43.32;102380.47;5053461;28;19917;-71
2023/06/01 03:10:14;;;;;;;;;;;;;;;22.53;43.11;102380.63;5052925;28;19984;-71
2023/06/01 03:12:40;;;;;;;;;;;;;;;22.53;43.46;102374.38;5050357;28;19913;-71
2023/06/01 03:15:05;;;;;;;;;;;;;;;22.51;43.00;102371.78;5032888;28;19923;-72
2023/06/01 03:17:31;;;;;;;;;;;;;;;22.50;43.25;102380.09;5051288;28;19921;-71
2023/06/01 03:19:56;;;;;;;;;;;;;;;22.50;43.07;102380.94;5053512;28;19913;-71
2023/06/01 03:22:22;;;;;;;;;;;;;;;22.49;43.31;102371.13;5057454;28;20401;-71
2023/06/01 03:24:50;;;;;;;;;;;;;;;22.49;43.01;102375.69;5043757;28;19979;-72
2023/06/01 03:27:19;;;;;;;;;;;;;;;22.48;43.40;102380.25;5057337;28;20047;-72
2023/06/01 03:29:44;;;;;;;;;;;;;;;22.48;43.01;102384.84;5051555;28;19921;-71
2023/06/01 03:32:09;;;;;;;;;;;;;;;22.47;42.98;102378.53;5049371;28;19920;-71
2023/06/01 03:34:36;;;;;;;;;;;;;;;22.47;43.04;102370.41;5036307;28;20027;-71
2023/06/01 03:37:03;;;;;;;;;;;;;;;22.46;43.22;102371.44;5032805;28;19935;-72
2023/06/01 03:39:29;;;;;;;;;;;;;;;22.45;43.06;102362.44;5049221;28;19916;-72
2023/06/01 03:41:54;;;;;;;;;;;;;;;22.45;42.99;102364.31;5049519;28;19910;-72
2023/06/01 03:44:19;;;;;;;;;;;;;;;22.46;43.21;102363.28;5051776;28;19913;-71
2023/06/01 03:46:45;;;;;;;;;;;;;;;22.44;42.92;102357.19;5040186;28;19917;-71
2023/06/01 03:49:10;;;;;;;;;;;;;;;22.44;42.92;102359.91;5039648;28;19923;-71
2023/06/01 03:51:36;;;;;;;;;;;;;;;22.44;43.28;102351.78;5050108;28;19928;-71
2023/06/01 03:54:01;;;;;;;;;;;;;;;22.42;43.10;102357.34;5044172;28;19939;-71
2023/06/01 03:56:27;;;;;;;;;;;;;;;22.42;43.10;102359.19;5053486;28;19917;-71
2023/06/01 03:58:52;;;;;;;;;;;;;;;22.42;43.30;102362.75;5053542;28;19913;-71
2023/06/01 04:01:19;;;;;;;;;;;;;;;22.42;43.00;102360.03;5021064;28;19917;-71
2023/06/01 04:03:45;;;;;;;;;;;;;;;22.42;42.93;102353.78;5040556;28;19971;-71
2023/06/01 04:06:13;;;;;;;;;;;;;;;22.41;43.04;102363.75;5048504;28;19913;-71
2023/06/01 04:08:47;;;;;;;;;;;;;;;22.40;43.23;102358.50;5037211;28;19913;-71
2023/06/01 04:11:12;;;;;;;;;;;;;;;22.40;43.00;102358.50;5052973;28;19921;-71
2023/06/01 04:13:37;;;;;;;;;;;;;;;22.39;43.02;102354.97;5046159;28;19913;-72
2023/06/01 04:16:03;;;;;;;;;;;;;;;22.40;43.07;102358.50;5034445;28;19992;-71
2023/06/01 04:18:28;;;;;;;;;;;;;;;22.40;42.99;102355.81;5049967;28;19921;-71
2023/06/01 04:20:53;;;;;;;;;;;;;;;22.39;43.11;102352.25;5042992;28;19936;-71
2023/06/01 04:23:18;;;;;;;;;;;;;;;22.37;42.91;102348.81;5056512;28;19920;-71
2023/06/01 04:25:44;;;;;;;;;;;;;;;22.37;42.72;102347.97;5053828;28;19913;-71
2023/06/01 04:28:10;;;;;;;;;;;;;;;22.36;43.02;102351.69;5038636;28;19917;-71
2023/06/01 04:30:35;;;;;;;;;;;;;;;22.36;42.79;102344.41;5053095;28;20512;-71
2023/06/01 04:33:01;;;;;;;;;;;;;;;22.36;42.91;102346.28;5042943;28;19952;-71
2023/06/01 04:35:26;;;;;;;;;;;;;;;22.35;42.74;102350.84;5048710;28;19913;-71
2023/06/01 04:37:51;;;;;;;;;;;;;;;22.35;42.71;102360.84;5039835;28;19909;-71
2023/06/01 04:40:16;;;;;;;;;;;;;;;22.34;43.02;102362.69;5053265;28;19913;-71
2023/06/01 04:42:42;;;;;;;;;;;;;;;22.34;43.08;102359.13;5053350;28;19960;-70
2023/06/01 04:45:11;;;;;;;;;;;;;;;22.34;42.76;102365.38;5037497;28;19924;-70
2023/06/01 04:47:40;;;;;;;;;;;;;;;22.34;42.62;102364.53;5038580;28;20036;-72
2023/06/01 04:50:05;;;;;;;;;;;;;;;22.32;42.71;102359.28;5060331;28;20589;-70
2023/06/01 04:52:31;;;;;;;;;;;;;;;22.32;42.68;102369.28;5030582;28;19913;-71
2023/06/01 04:54:56;;;;;;;;;;;;;;;22.32;42.88;102366.56;5059928;28;20401;-71
2023/06/01 04:57:23;;;;;;;;;;;;;;;22.32;42.87;102369.28;5040673;28;19921;-71
2023/06/01 04:59:48;;;;;;;;;;;;;;;22.31;42.88;102365.72;5048350;28;19920;-71
2023/06/01 05:02:13;;;;;;;;;;;;;;;22.30;42.55;102372.16;5039550;28;19917;-72
2023/06/01 05:04:39;;;;;;;;;;;;;;;22.31;42.87;102371.16;5040217;28;19999;-72
2023/06/01 05:07:04;;;;;;;;;;;;;;;22.29;42.98;102367.72;5053587;28;19924;-71
2023/06/01 05:09:30;;;;;;;;;;;;;;;22.29;42.65;102367.72;5033950;28;19914;-71
2023/06/01 05:11:55;;;;;;;;;;;;;;;22.28;42.81;102366.03;5056087;28;19919;-71
2023/06/01 05:14:20;;;;;;;;;;;;;;;22.28;42.69;102366.03;5052939;28;19963;-71
2023/06/01 05:16:46;;;;;;;;;;;;;;;22.29;42.93;102364.16;5040456;28;19974;-71
2023/06/01 05:19:12;;;;;;;;;;;;;;;22.28;42.77;102371.44;5054132;28;19913;-71
2023/06/01 05:21:38;;;;;;;;;;;;;;;22.27;42.54;102372.47;5046295;28;19923;-71
2023/06/01 05:24:03;;;;;;;;;;;;;;;22.28;42.84;102366.03;5043159;28;19953;-71
2023/06/01 05:26:29;;;;;;;;;;;;;;;22.27;42.82;102367.03;5054321;28;19936;-71
2023/06/01 05:28:54;;;;;;;;;;;;;;;22.26;42.66;102369.88;5052960;28;19917;-71
2023/06/01 05:31:20;;;;;;;;;;;;;;;22.26;42.72;102361.75;5052002;28;19950;-71
2023/06/01 05:33:45;;;;;;;;;;;;;;;22.26;42.58;102369.88;5033193;28;19917;-70
2023/06/01 05:36:10;;;;;;;;;;;;;;;22.25;42.75;102363.63;5042263;28;19919;-70
2023/06/01 05:38:36;;;;;;;;;;;;;;;22.24;42.79;102361.94;5037671;28;19919;-70
2023/06/01 05:41:02;;;;;;;;;;;;;;;22.24;42.72;102366.50;5049850;28;19963;-70
2023/06/01 05:43:27;;;;;;;;;;;;;;;22.23;42.73;102365.66;5040432;28;19912;-71
2023/06/01 05:45:52;;;;;;;;;;;;;;;22.23;43.00;102362.94;5054957;28;19917;-71
2023/06/01 05:48:18;;;;;;;;;;;;;;;22.23;42.92;102365.66;5055154;28;19913;-71
2023/06/01 05:50:43;;;;;;;;;;;;;;;22.23;42.86;102365.66;5041632;28;19928;-71
2023/06/01 05:53:09;;;;;;;;;;;;;;;22.22;42.98;102369.38;5047474;28;19942;-71
2023/06/01 05:55:34;;;;;;;;;;;;;;;22.21;42.64;102376.63;5035817;28;19988;-71
2023/06/01 05:58:00;;;;;;;;;;;;;;;22.22;42.65;102369.38;5039735;28;19913;-71
2023/06/01 06:00:25;;;;;;;;;;;;;;;22.21;42.59;102373.91;5052181;28;20301;-71
2023/06/01 06:02:50;;;;;;;;;;;;;;;22.20;42.49;102374.06;5035311;28;19936;-71
2023/06/01 06:05:16;;;;;;;;;;;;;;;22.20;42.87;102374.94;5052112;28;19919;-71
2023/06/01 06:07:41;;;;;;;;;;;;;;;22.20;42.55;102377.63;5038113;28;19984;-70
2023/06/01 06:10:07;;;;;;;;;;;;;;;22.20;42.71;102376.78;5053822;28;20419;-71
2023/06/01 06:12:32;;;;;;;;;;;;;;;22.19;42.58;102369.69;5037953;28;19967;-71
2023/06/01 06:14:57;;;;;;;;;;;;;;;22.19;42.63;102366.97;5050398;28;19913;-71
2023/06/01 06:17:22;;;;;;;;;;;;;;;22.18;42.69;102363.41;5042591;28;19932;-71
2023/06/01 06:19:49;;;;;;;;;;;;;;;22.18;42.48;102365.28;5033833;28;19920;-71
2023/06/01 06:22:14;;;;;;;;;;;;;;;22.18;42.70;102363.41;5054990;28;19924;-71
2023/06/01 06:24:39;;;;;;;;;;;;;;;22.18;42.88;102367.97;5054269;28;19921;-70
2023/06/01 06:27:05;;;;;;;;;;;;;;;22.17;42.82;102361.72;5047548;28;20341;-71
2023/06/01 06:29:31;;;;;;;;;;;;;;;22.17;42.86;102369.84;5051792;28;19940;-71
2023/06/01 06:31:56;;;;;;;;;;;;;;;22.18;42.69;102371.53;5033761;28;19916;-71
2023/06/01 06:34:21;;;;;;;;;;;;;;;22.17;42.62;102369.84;5050677;28;19913;-70
2023/06/01 06:36:46;;;;;;;;;;;;;;;22.17;42.58;102363.53;5050216;28;19913;-70
2023/06/01 06:39:12;;;;;;;;;;;;;;;22.17;42.82;102368.97;5055724;28;19921;-71
2023/06/01 06:41:37;;;;;;;;;;;;;;;22.17;42.67;102363.53;5049548;28;19980;-71
2023/06/01 06:44:03;;;;;;;;;;;;;;;22.17;42.63;102371.66;5047490;28;19912;-71
2023/06/01 06:46:28;;;;;;;;;;;;;;;22.17;42.75;102374.38;5052749;28;19917;-71
2023/06/01 06:48:54;;;;;;;;;;;;;;;22.17;42.63;102369.84;5050846;28;20362;-71
2023/06/01 06:51:19;;;;;;;;;;;;;;;22.17;42.98;102369.84;5038923;28;19924;-70
2023/06/01 06:53:44;;;;;;;;;;;;;;;22.17;42.74;102372.56;5055392;28;19924;-70
2023/06/01 06:56:09;;;;;;;;;;;;;;;22.18;42.70;102376.09;5050333;28;20338;-70
2023/06/01 06:58:35;;;;;;;;;;;;;;;22.18;42.57;102378.81;5032007;28;20020;-71
2023/06/01 07:01:04;;;;;;;;;;;;;;;22.19;42.58;102377.81;5052723;28;20318;-71
2023/06/01 07:03:30;;;;;;;;;;;;;;;22.19;42.62;102381.34;5031289;28;19913;-71
2023/06/01 07:05:55;;;;;;;;;;;;;;;22.19;42.90;102385.94;5034718;28;19919;-70
2023/06/01 07:08:20;;;;;;;;;;;;;;;22.19;42.74;102370.53;5036038;28;19940;-70
2023/06/01 07:10:46;;;;;;;;;;;;;;;21.75;42.85;102307.28;5054303;28;19921;-70
2023/06/01 07:13:11;;;;;;;;;;;;;;;22.05;42.71;102352.09;5055751;28;19913;-70
2023/06/01 07:15:36;;;;;;;;;;;;;;;22.19;42.92;102375.94;5050394;28;19920;-70
2023/06/01 07:18:01;;;;;;;;;;;;;;;22.19;42.94;102378.66;5055609;28;19921;-71
2023/06/01 07:20:26;;;;;;;;;;;;;;;22.18;42.80;102385.09;5049401;28;19920;-70
2023/06/01 07:22:51;;;;;;;;;;;;;;;22.18;42.78;102385.09;5044448;28;19967;-71
2023/06/01 07:25:17;;;;;;;;;;;;;;;22.18;42.75;102376.09;5020969;28;20420;-71
2023/06/01 07:27:48;;;;;;;;;;;;;;;22.18;42.60;102374.25;5040303;28;20008;-71
2023/06/01 07:30:13;;;;;;;;;;;;;;;22.17;42.56;102372.56;5057139;28;19917;-71
2023/06/01 07:32:38;;;;;;;;;;;;;;;22.18;42.69;102376.09;5051102;28;20274;-71
2023/06/01 07:35:06;;;;;;;;;;;;;;;22.17;42.63;102377.09;5050035;28;19952;-70
2023/06/01 07:37:31;;;;;;;;;;;;;;;22.17;42.85;102377.09;5050414;28;20003;-70
2023/06/01 07:39:57;;;;;;;;;;;;;;;22.17;42.51;102386.09;5039167;28;20290;-71
2023/06/01 07:42:22;;;;;;;;;;;;;;;22.17;42.47;102383.38;5043620;28;20393;-71
2023/06/01 07:44:47;;;;;;;;;;;;;;;22.17;42.63;102377.97;5040916;28;19913;-71
2023/06/01 07:47:12;;;;;;;;;;;;;;;22.18;42.42;102376.09;5043443;28;20370;-70
2023/06/01 07:49:38;;;;;;;;;;;;;;;22.18;42.88;102376.09;5043831;28;19917;-71
2023/06/01 07:52:04;;;;;;;;;;;;;;;22.17;42.50;102369.84;5036167;28;19936;-71
2023/06/01 07:54:29;;;;;;;;;;;;;;;22.18;42.57;102365.28;5049706;28;20282;-71
2023/06/01 07:56:56;;;;;;;;;;;;;;;22.17;42.67;102361.72;5030895;28;19921;-70
2023/06/01 07:59:22;;;;;;;;;;;;;;;22.18;42.45;102362.56;5048605;28;19980;-70
2023/06/01 08:01:51;;;;;;;;;;;;;;;22.18;42.57;102366.13;5051637;28;19928;-72
2023/06/01 08:04:20;;;;;;;;;;;;;;;22.18;42.66;102366.13;5043665;28;20424;-71
2023/06/01 08:06:45;;;;;;;;;;;;;;;22.18;42.62;102367.97;5056885;28;20000;-71
2023/06/01 08:09:11;;;;;;;;;;;;;;;22.18;42.39;102371.53;5050176;28;19913;-71
2023/06/01 08:11:36;;;;;;;;;;;;;;;22.17;42.49;102367.13;5058665;28;20375;-70
2023/06/01 08:14:02;;;;;;;;;;;;;;;22.19;42.58;102366.97;5051938;28;20001;-71
2023/06/01 08:16:28;;;;;;;;;;;;;;;22.18;42.62;102363.41;5048376;28;19913;-71
2023/06/01 08:18:53;;;;;;;;;;;;;;;22.19;42.25;102361.53;5036938;28;19920;-70
2023/06/01 08:21:19;;;;;;;;;;;;;;;22.19;42.23;102353.41;5049003;28;19948;-70
2023/06/01 08:23:44;;;;;;;;;;;;;;;22.19;42.19;102359.69;5048906;28;19964;-71
2023/06/01 08:26:09;;;;;;;;;;;;;;;22.20;42.43;102361.38;5048156;28;19965;-70
2023/06/01 08:28:35;;;;;;;;;;;;;;;22.20;42.23;102358.66;5044931;28;19924;-71
2023/06/01 08:31:00;;;;;;;;;;;;;;;22.20;42.16;102364.09;5039361;28;19921;-71
2023/06/01 08:33:25;;;;;;;;;;;;;;;22.21;42.29;102354.94;5034625;28;19914;-72
2023/06/01 08:35:51;;;;;;;;;;;;;;;22.23;42.27;102348.53;5032386;28;19917;-70
2023/06/01 08:38:16;;;;;;;;;;;;;;;22.24;42.46;102352.94;5041334;28;19981;-70
2023/06/01 08:40:41;;;;;;;;;;;;;;;22.23;42.59;102346.69;5035818;28;19923;-71
2023/06/01 08:43:16;;;;;;;;;;;;;;;22.24;42.43;102352.94;5046896;28;19948;-71
2023/06/01 08:45:42;;;;;;;;;;;;;;;22.23;42.36;102335.84;5039328;28;19940;-70
2023/06/01 08:48:08;;;;;;;;;;;;;;;22.24;42.59;102337.53;5038385;28;19914;-72
2023/06/01 08:50:33;;;;;;;;;;;;;;;22.24;42.15;102342.97;5052187;28;19924;-71
2023/06/01 08:52:58;;;;;;;;;;;;;;;22.26;42.31;102342.78;5038799;28;19917;-71
2023/06/01 08:55:23;;;;;;;;;;;;;;;22.25;42.56;102339.22;5043867;28;19977;-71
2023/06/01 08:57:49;;;;;;;;;;;;;;;22.25;42.77;102349.22;5032159;28;19919;-71
2023/06/01 09:00:14;;;;;;;;;;;;;;;22.25;42.41;102344.66;5049420;28;20137;-71
2023/06/01 09:02:42;;;;;;;;;;;;;;;22.25;42.36;102352.78;5051710;28;19967;-71
2023/06/01 09:05:08;;;;;;;;;;;;;;;22.25;42.50;102341.09;5051795;28;19949;-71
2023/06/01 09:07:34;;;;;;;;;;;;;;;22.25;42.40;102346.50;5040245;28;19935;-71
2023/06/01 09:09:59;;;;;;;;;;;;;;;22.26;42.31;102354.50;5054956;28;19967;-71
2023/06/01 09:12:35;;;;;;;;;;;;;;;22.26;42.58;102345.50;5058800;28;20101;-71
2023/06/01 09:15:09;;;;;;;;;;;;;;;22.26;42.63;102349.09;5036715;28;19920;-71
2023/06/01 09:17:34;;;;;;;;;;;;;;;22.26;42.63;102340.97;5052710;28;19921;-71
2023/06/01 09:20:00;;;;;;;;;;;;;;;22.27;42.49;102342.66;5038663;28;19920;-71
2023/06/01 09:22:25;;;;;;;;;;;;;;;22.27;42.66;102333.69;5036700;28;19920;-71
2023/06/01 09:25:00;;;;;;;;;;;;;;;22.27;42.38;102337.25;5047218;28;20258;-71
2023/06/01 09:27:26;;;;;;;;;;;;;;;22.28;42.39;102327.25;5052197;28;20013;-71
2023/06/01 09:29:54;;;;;;;;;;;;;;;22.28;42.70;102327.25;5046530;28;20349;-71
2023/06/01 09:32:21;;;;;;;;;;;;;;;22.28;42.58;102319.97;5052306;28;19917;-71
2023/06/01 09:34:46;;;;;;;;;;;;;;;22.28;42.61;102327.25;5041848;28;19935;-71
2023/06/01 09:37:12;;;;;;;;;;;;;;;22.28;42.95;102327.25;5051015;28;19913;-71
2023/06/01 09:39:37;;;;;;;;;;;;;;;22.28;42.76;102314.53;5058386;28;19917;-71
2023/06/01 09:42:03;;;;;;;;;;;;;;;22.29;42.84;102320.81;5053067;28;19917;-71
2023/06/01 09:44:29;;;;;;;;;;;;;;;22.29;42.89;102326.22;5021814;28;19913;-71
2023/06/01 09:46:58;;;;;;;;;;;;;;;22.29;42.70;102320.81;5035547;28;19917;-71
2023/06/01 09:49:25;;;;;;;;;;;;;;;22.28;42.83;102314.53;5055140;28;20369;-71
2023/06/01 09:52:05;;;;;;;;;;;;;;;22.29;43.19;102315.41;5034835;28;19918;-71
2023/06/01 09:54:37;;;;;;;;;;;;;;;22.28;42.90;102317.25;5055211;28;19924;-71
2023/06/01 09:57:03;;;;;;;;;;;;;;;22.29;42.74;102310.81;5035397;28;20025;-71
2023/06/01 09:59:28;;;;;;;;;;;;;;;22.30;42.74;102304.41;5033713;28;20270;-71
2023/06/01 10:01:57;;;;;;;;;;;;;;;22.32;42.88;102306.97;5026898;28;19916;-71
2023/06/01 10:04:24;;;;;;;;;;;;;;;22.33;43.03;102305.94;5045351;28;19924;-71
2023/06/01 10:06:53;;;;;;;;;;;;;;;22.34;43.04;102296.78;5057857;28;19913;-71
2023/06/01 10:09:19;;;;;;;;;;;;;;;22.34;42.80;102303.06;5052470;28;19913;-71
2023/06/01 10:11:48;;;;;;;;;;;;;;;22.35;42.97;102307.50;5031546;28;19916;-71
2023/06/01 10:14:14;;;;;;;;;;;;;;;22.35;42.88;102299.38;5054270;28;19919;-71
2023/06/01 10:16:40;;;;;;;;;;;;;;;22.35;43.17;102296.66;5046766;28;19952;-71
2023/06/01 10:19:06;;;;;;;;;;;;;;;22.36;42.89;102300.22;5034503;28;19917;-71
2023/06/01 10:21:32;;;;;;;;;;;;;;;22.36;43.03;102292.09;5018156;28;19952;-71
2023/06/01 10:23:57;;;;;;;;;;;;;;;22.37;43.17;102299.19;5054514;28;19981;-71
2023/06/01 10:26:22;;;;;;;;;;;;;;;22.38;43.10;102301.75;5032592;28;19917;-71
2023/06/01 10:28:47;;;;;;;;;;;;;;;22.40;43.19;102296.19;5057412;28;19940;-71
2023/06/01 10:31:31;;;;;;;;;;;;;;;22.40;43.21;102288.91;5040166;28;19921;-71
2023/06/01 10:33:57;;;;;;;;;;;;;;;22.41;43.11;102303.28;5060373;28;20385;-71
2023/06/01 10:36:23;;;;;;;;;;;;;;;22.42;43.13;102296.88;5043013;28;19920;-71
2023/06/01 10:38:48;;;;;;;;;;;;;;;22.42;43.22;102303.13;5050259;28;19913;-71
2023/06/01 10:41:30;;;;;;;;;;;;;;;22.43;43.26;102298.59;5036958;28;19913;-71
2023/06/01 10:43:55;;;;;;;;;;;;;;;22.44;43.28;102303.84;5051034;28;19917;-71
2023/06/01 10:46:30;;;;;;;;;;;;;;;22.45;43.34;102296.56;5050357;28;19913;-71
2023/06/01 10:48:56;;;;;;;;;;;;;;;22.46;43.08;102298.25;5053500;28;20303;-71
2023/06/01 10:51:21;;;;;;;;;;;;;;;22.48;43.30;102293.53;5052739;28;19924;-71
2023/06/01 10:53:46;;;;;;;;;;;;;;;22.48;43.38;102281.84;5040147;28;19920;-71
2023/06/01 10:56:23;;;;;;;;;;;;;;;22.49;43.30;102294.38;5038094;28;19935;-71
2023/06/01 10:59:11;;;;;;;;;;;;;;;22.50;43.51;102291.50;5049737;28;19948;-71
2023/06/01 11:01:37;;;;;;;;;;;;;;;22.52;43.30;102292.22;5051774;28;19916;-71
2023/06/01 11:04:03;;;;;;;;;;;;;;;22.53;43.19;102287.63;5044996;28;19920;-71
2023/06/01 11:06:29;;;;;;;;;;;;;;;22.54;43.12;102292.03;5032208;28;19917;-71
2023/06/01 11:08:55;;;;;;;;;;;;;;;22.54;43.55;102276.63;5037294;28;19917;-71
2023/06/01 11:11:20;;;;;;;;;;;;;;;22.55;43.23;102282.88;5050962;28;19917;-71
2023/06/01 11:14:04;;;;;;;;;;;;;;;22.55;43.38;102282.88;5051419;28;19913;-72
2023/06/01 11:16:30;;;;;;;;;;;;;;;22.56;43.40;102273.78;5033292;28;19999;-72
2023/06/01 11:18:59;;;;;;;;;;;;;;;22.57;43.42;102275.47;5044471;28;20463;-72
2023/06/01 11:21:27;;;;;;;;;;;;;;;22.57;43.56;102284.44;5049659;28;19956;-72
2023/06/01 11:23:56;;;;;;;;;;;;;;;22.57;43.36;102280.88;5054179;28;19917;-72
2023/06/01 11:26:24;;;;;;;;;;;;;;;22.59;43.57;102276.13;5042977;28;19913;-71
2023/06/01 11:28:50;;;;;;;;;;;;;;;22.60;43.54;102275.13;5057832;28;19924;-72
2023/06/01 11:31:16;;;;;;;;;;;;;;;22.61;43.39;102277.69;5041592;28;19917;-72
2023/06/01 11:33:41;;;;;;;;;;;;;;;22.62;43.27;102270.41;5054003;28;19917;-72
2023/06/01 11:36:10;;;;;;;;;;;;;;;22.64;43.67;102279.22;5036781;28;19917;-72
2023/06/01 11:38:39;;;;;;;;;;;;;;;22.66;43.36;102269.06;5053194;28;19963;-72
2023/06/01 11:41:04;;;;;;;;;;;;;;;22.67;43.69;102277.03;5031977;28;19917;-72
2023/06/01 11:43:30;;;;;;;;;;;;;;;22.70;43.25;102278.59;5032214;28;19920;-72
2023/06/01 11:46:02;;;;;;;;;;;;;;;22.71;43.52;102267.56;5032993;28;19917;-71
2023/06/01 11:48:27;;;;;;;;;;;;;;;22.74;43.50;102265.56;5051015;28;20405;-71
2023/06/01 11:50:54;;;;;;;;;;;;;;;22.73;43.42;102262.00;5054216;28;20362;-71
2023/06/01 11:53:19;;;;;;;;;;;;;;;22.73;43.56;102264.72;5049009;28;19917;-72
2023/06/01 11:55:51;;;;;;;;;;;;;;;22.74;43.66;102269.13;5045379;28;19970;-72
2023/06/01 11:58:29;;;;;;;;;;;;;;;22.74;43.74;102271.00;5053190;28;19947;-72
2023/06/01 12:00:55;;;;;;;;;;;;;;;22.75;43.72;102267.25;5056766;28;19916;-71
2023/06/01 12:03:21;;;;;;;;;;;;;;;22.73;43.34;102264.72;5025783;28;19943;-71
2023/06/01 12:05:48;;;;;;;;;;;;;;;22.74;43.69;102260.16;5045628;28;19935;-71
2023/06/01 12:08:13;;;;;;;;;;;;;;;22.74;43.54;102260.16;5035208;28;19917;-71
2023/06/01 12:10:39;;;;;;;;;;;;;;;22.73;43.74;102272.84;5030848;28;19945;-71
2023/06/01 12:13:04;;;;;;;;;;;;;;;22.73;43.78;102266.59;5051289;28;19917;-72
2023/06/01 12:15:29;;;;;;;;;;;;;;;22.73;43.65;102269.31;5049178;28;19921;-72
2023/06/01 12:17:55;;;;;;;;;;;;;;;22.73;43.66;102264.72;5052400;28;19925;-72
2023/06/01 12:20:27;;;;;;;;;;;;;;;22.72;43.89;102268.41;5048199;28;19972;-71
2023/06/01 12:22:55;;;;;;;;;;;;;;;22.71;43.96;102273.00;5055039;28;19913;-71
2023/06/01 12:25:20;;;;;;;;;;;;;;;22.71;43.83;102278.41;5035590;28;19913;-72
2023/06/01 12:27:58;;;;;;;;;;;;;;;22.71;43.91;102275.72;5026326;28;19917;-72
2023/06/01 12:30:23;;;;;;;;;;;;;;;22.71;43.77;102272.16;5056738;28;19996;-71
2023/06/01 12:32:49;;;;;;;;;;;;;;;22.71;43.57;102277.56;5050379;28;19916;-71